Time,TemperatureF,DewpointF,PressureIn,WindDirection,WindDirectionDegrees,WindSpeedMPH,WindSpeedGustMPH,Humidity,HourlyPrecipIn,Conditions,Clouds,dailyrainin,SoftwareType,DateUTC
2013-05-07 09:11:00,53.0,-99.9,30.05,East,95,15.0,18.0,-999,-99.99,,,-99.99,,2013-05-07 13:11:00,
2013-05-07 09:22:00,53.0,-99.9,30.05,East,87,19.0,23.0,-999,-99.99,,,-99.99,,2013-05-07 13:22:00,
2013-05-07 09:32:00,53.0,-99.9,30.04,East,81,20.0,26.0,-999,-99.99,,,-99.99,,2013-05-07 13:32:00,
2013-05-07 09:42:00,53.0,-99.9,30.04,East,80,21.0,23.0,-999,-99.99,,,-99.99,,2013-05-07 13:42:00,
2013-05-07 09:52:00,53.0,-99.9,30.04,East,83,21.0,25.0,-999,-99.99,,,-99.99,,2013-05-07 13:52:00,
2013-05-07 10:02:00,53.0,-99.9,30.04,East,79,23.0,29.0,-999,-99.99,,,-99.99,,2013-05-07 14:02:00,
2013-05-07 10:11:00,53.0,-99.9,30.04,East,86,21.0,23.0,-999,-99.99,,,-99.99,,2013-05-07 14:11:00,
2013-05-07 10:22:00,54.0,-99.9,30.04,East,82,21.0,26.0,-999,-99.99,,,-99.99,,2013-05-07 14:22:00,
2013-05-07 10:32:00,54.0,-99.9,30.04,East,85,19.0,23.0,-999,-99.99,,,-99.99,,2013-05-07 14:32:00,
2013-05-07 10:42:00,53.0,-99.9,30.04,East,81,22.0,26.0,-999,-99.99,,,-99.99,,2013-05-07 14:42:00,
2013-05-07 10:52:00,54.0,-99.9,30.04,East,82,23.0,28.0,-999,-99.99,,,-99.99,,2013-05-07 14:52:00,
2013-05-07 11:01:00,54.0,-99.9,30.04,East,84,20.0,24.0,-999,-99.99,,,-99.99,,2013-05-07 15:01:00,
2013-05-07 11:12:00,53.0,-99.9,30.04,East,86,21.0,25.0,-999,-99.99,,,-99.99,,2013-05-07 15:12:00,
2013-05-07 11:22:00,53.0,-99.9,30.05,East,89,21.0,24.0,-999,-99.99,,,-99.99,,2013-05-07 15:22:00,
2013-05-07 11:33:00,54.0,-99.9,30.04,East,85,22.0,25.0,-999,-99.99,,,-99.99,,2013-05-07 15:33:00,
2013-05-07 11:43:00,53.0,-99.9,30.04,East,82,25.0,30.0,-999,-99.99,,,-99.99,,2013-05-07 15:43:00,
2013-05-07 11:53:00,53.0,-99.9,30.04,East,81,21.0,26.0,-999,-99.99,,,-99.99,,2013-05-07 15:53:00,
2013-05-07 12:03:00,53.0,-99.9,30.04,East,91,22.0,26.0,-999,-99.99,,,-99.99,,2013-05-07 16:03:00,
2013-05-07 12:12:00,53.0,-99.9,30.04,East,84,24.0,28.0,-999,-99.99,,,-99.99,,2013-05-07 16:12:00,
2013-05-07 12:22:00,54.0,-99.9,30.04,East,82,21.0,27.0,-999,-99.99,,,-99.99,,2013-05-07 16:22:00,
2013-05-07 12:32:00,53.0,-99.9,30.04,East,84,21.0,24.0,-999,-99.99,,,-99.99,,2013-05-07 16:32:00,
2013-05-07 12:42:00,54.0,-99.9,30.04,East,84,21.0,26.0,-999,-99.99,,,-99.99,,2013-05-07 16:42:00,
2013-05-07 12:52:00,54.0,-99.9,30.03,East,84,23.0,28.0,-999,-99.99,,,-99.99,,2013-05-07 16:52:00,
2013-05-07 13:01:00,54.0,-99.9,30.03,East,90,19.0,22.0,-999,-99.99,,,-99.99,,2013-05-07 17:01:00,
2013-05-07 13:12:00,54.0,-99.9,30.03,East,88,22.0,27.0,-999,-99.99,,,-99.99,,2013-05-07 17:12:00,
2013-05-07 13:21:00,54.0,-99.9,30.03,East,84,23.0,28.0,-999,-99.99,,,-99.99,,2013-05-07 17:21:00,
2013-05-07 13:32:00,54.0,-99.9,30.03,East,86,21.0,25.0,-999,-99.99,,,-99.99,,2013-05-07 17:32:00,
2013-05-07 13:41:00,53.0,-99.9,30.03,East,88,22.0,26.0,-999,-99.99,,,-99.99,,2013-05-07 17:41:00,
2013-05-07 13:53:00,54.0,-99.9,30.03,East,90,22.0,28.0,-999,-99.99,,,-99.99,,2013-05-07 17:53:00,
2013-05-07 14:01:00,54.0,-99.9,30.02,East,87,22.0,26.0,-999,-99.99,,,-99.99,,2013-05-07 18:01:00,
2013-05-07 14:12:00,54.0,-99.9,30.02,East,87,22.0,27.0,-999,-99.99,,,-99.99,,2013-05-07 18:12:00,
2013-05-07 14:21:00,54.0,-99.9,30.02,East,86,22.0,25.0,-999,-99.99,,,-99.99,,2013-05-07 18:21:00,
2013-05-07 14:32:00,54.0,-99.9,30.01,East,87,23.0,27.0,-999,-99.99,,,-99.99,,2013-05-07 18:32:00,
2013-05-07 14:42:00,54.0,-99.9,30.01,East,87,23.0,28.0,-999,-99.99,,,-99.99,,2013-05-07 18:42:00,
2013-05-07 14:52:00,54.0,-99.9,30.01,East,86,24.0,27.0,-999,-99.99,,,-99.99,,2013-05-07 18:52:00,
2013-05-07 15:02:00,54.0,-99.9,30.01,East,85,23.0,27.0,-999,-99.99,,,-99.99,,2013-05-07 19:02:00,
2013-05-07 15:11:00,54.0,-99.9,30.01,East,90,22.0,26.0,-999,-99.99,,,-99.99,,2013-05-07 19:11:00,
2013-05-07 15:22:00,54.0,-99.9,30.00,East,89,24.0,28.0,-999,-99.99,,,-99.99,,2013-05-07 19:22:00,
2013-05-07 15:32:00,54.0,-99.9,30.00,East,87,22.0,28.0,-999,-99.99,,,-99.99,,2013-05-07 19:32:00,
2013-05-07 15:42:00,54.0,-99.9,30.00,East,85,21.0,27.0,-999,-99.99,,,-99.99,,2013-05-07 19:42:00,
2013-05-07 15:52:00,54.0,-99.9,30.00,East,86,19.0,24.0,-999,-99.99,,,-99.99,,2013-05-07 19:52:00,
2013-05-07 16:02:00,54.0,-99.9,30.00,East,85,21.0,25.0,-999,-99.99,,,-99.99,,2013-05-07 20:02:00,
2013-05-07 16:12:00,54.0,-99.9,30.00,East,90,19.0,23.0,-999,-99.99,,,-99.99,,2013-05-07 20:12:00,
2013-05-07 16:22:00,55.0,-99.9,29.99,East,86,17.0,26.0,-999,-99.99,,,-99.99,,2013-05-07 20:22:00,
2013-05-07 16:32:00,54.0,-99.9,29.98,East,88,20.0,24.0,-999,-99.99,,,-99.99,,2013-05-07 20:32:00,
2013-05-07 16:42:00,54.0,-99.9,29.98,East,87,19.0,26.0,-999,-99.99,,,-99.99,,2013-05-07 20:42:00,
2013-05-07 16:52:00,55.0,-99.9,29.98,East,87,19.0,23.0,-999,-99.99,,,-99.99,,2013-05-07 20:52:00,
2013-05-07 17:02:00,55.0,-99.9,29.98,East,88,18.0,21.0,-999,-99.99,,,-99.99,,2013-05-07 21:02:00,
2013-05-07 17:11:00,55.0,-99.9,29.97,East,90,19.0,22.0,-999,-99.99,,,-99.99,,2013-05-07 21:11:00,
2013-05-07 17:22:00,55.0,-99.9,29.97,East,89,19.0,23.0,-999,-99.99,,,-99.99,,2013-05-07 21:22:00,
2013-05-07 17:33:00,55.0,-99.9,29.96,East,87,21.0,28.0,-999,-99.99,,,-99.99,,2013-05-07 21:33:00,
2013-05-07 17:43:00,55.0,-99.9,29.96,East,89,19.0,23.0,-999,-99.99,,,-99.99,,2013-05-07 21:43:00,
2013-05-07 17:53:00,55.0,-99.9,29.96,East,84,20.0,24.0,-999,-99.99,,,-99.99,,2013-05-07 21:53:00,
2013-05-07 18:02:00,55.0,-99.9,29.96,East,82,21.0,25.0,-999,-99.99,,,-99.99,,2013-05-07 22:02:00,
2013-05-07 18:13:00,55.0,-99.9,29.96,East,82,21.0,23.0,-999,-99.99,,,-99.99,,2013-05-07 22:13:00,
2013-05-07 18:23:00,55.0,-99.9,29.94,ENE,77,23.0,26.0,-999,-99.99,,,-99.99,,2013-05-07 22:23:00,
2013-05-07 18:33:00,56.0,-99.9,29.96,East,91,19.0,23.0,-999,-99.99,,,-99.99,,2013-05-07 22:33:00,
2013-05-07 18:42:00,56.0,-99.9,29.97,East,95,17.0,21.0,-999,-99.99,,,-99.99,,2013-05-07 22:42:00,
2013-05-07 18:52:00,56.0,-99.9,29.96,East,89,17.0,20.0,-999,-99.99,,,-99.99,,2013-05-07 22:52:00,
2013-05-07 19:02:00,56.0,-99.9,29.96,East,88,19.0,26.0,-999,-99.99,,,-99.99,,2013-05-07 23:02:00,
2013-05-07 19:12:00,56.0,-99.9,29.96,East,87,17.0,21.0,-999,-99.99,,,-99.99,,2013-05-07 23:12:00,
2013-05-07 19:22:00,56.0,-99.9,29.96,East,88,17.0,21.0,-999,-99.99,,,-99.99,,2013-05-07 23:22:00,
2013-05-07 19:32:00,56.0,-99.9,29.97,East,95,16.0,19.0,-999,-99.99,,,-99.99,,2013-05-07 23:32:00,
2013-05-07 19:42:00,57.0,-99.9,29.96,East,90,18.0,24.0,-999,-99.99,,,-99.99,,2013-05-07 23:42:00,
2013-05-07 19:52:00,57.0,-99.9,29.97,East,94,15.0,20.0,-999,-99.99,,,-99.99,,2013-05-07 23:52:00,
2013-05-07 20:02:00,57.0,-99.9,29.97,East,100,13.0,17.0,-999,-99.99,,,-99.99,,2013-05-08 00:02:00,
2013-05-07 20:12:00,57.0,-99.9,29.97,East,93,18.0,22.0,-999,-99.99,,,-99.99,,2013-05-08 00:12:00,
2013-05-07 20:22:00,57.0,-99.9,29.95,East,85,16.0,23.0,-999,-99.99,,,-99.99,,2013-05-08 00:22:00,
2013-05-07 20:32:00,58.0,-99.9,29.98,ESE,117,9.0,12.0,-999,-99.99,,,-99.99,,2013-05-08 00:32:00,
2013-05-07 20:42:00,58.0,-99.9,29.97,East,97,10.0,12.0,-999,-99.99,,,-99.99,,2013-05-08 00:42:00,
2013-05-07 20:52:00,59.0,-99.9,29.98,SE,133,9.0,12.0,-999,-99.99,,,-99.99,,2013-05-08 00:52:00,
2013-05-07 21:02:00,58.0,-99.9,29.98,ESE,106,12.0,14.0,-999,-99.99,,,-99.99,,2013-05-08 01:02:00,
2013-05-07 21:12:00,58.0,-99.9,30.00,ESE,123,7.0,11.0,-999,-99.99,,,-99.99,,2013-05-08 01:12:00,
2013-05-07 21:22:00,58.0,-99.9,30.01,SE,135,7.0,11.0,-999,-99.99,,,-99.99,,2013-05-08 01:22:00,
2013-05-07 21:32:00,58.0,-99.9,30.01,ESE,121,7.0,9.0,-999,-99.99,,,-99.99,,2013-05-08 01:32:00,
2013-05-07 21:42:00,58.0,-99.9,30.02,SSE,153,6.0,7.0,-999,-99.99,,,-99.99,,2013-05-08 01:42:00,
2013-05-07 21:52:00,57.0,-99.9,30.02,SE,142,5.0,7.0,-999,-99.99,,,-99.99,,2013-05-08 01:52:00,
2013-05-07 22:02:00,57.0,-99.9,30.02,ESE,117,9.0,11.0,-999,-99.99,,,-99.99,,2013-05-08 02:02:00,
2013-05-07 22:12:00,57.0,-99.9,30.01,ESE,103,7.0,9.0,-999,-99.99,,,-99.99,,2013-05-08 02:12:00,
2013-05-07 22:22:00,56.0,-99.9,30.01,East,100,7.0,8.0,-999,-99.99,,,-99.99,,2013-05-08 02:22:00,
2013-05-07 22:32:00,56.0,-99.9,30.01,East,98,11.0,14.0,-999,-99.99,,,-99.99,,2013-05-08 02:32:00,
2013-05-07 22:42:00,56.0,-99.9,30.01,East,99,9.0,10.0,-999,-99.99,,,-99.99,,2013-05-08 02:42:00,
2013-05-07 22:52:00,55.0,-99.9,30.00,ESE,104,8.0,8.0,-999,-99.99,,,-99.99,,2013-05-08 02:52:00,
2013-05-07 23:02:00,55.0,-99.9,30.01,ESE,115,6.0,8.0,-999,-99.99,,,-99.99,,2013-05-08 03:02:00,
2013-05-07 23:11:00,55.0,-99.9,30.01,ESE,114,6.0,7.0,-999,-99.99,,,-99.99,,2013-05-08 03:11:00,
2013-05-07 23:22:00,55.0,-99.9,29.99,East,97,6.0,7.0,-999,-99.99,,,-99.99,,2013-05-08 03:22:00,
2013-05-07 23:33:00,55.0,-99.9,30.00,SE,139,3.0,4.0,-999,-99.99,,,-99.99,,2013-05-08 03:33:00,
2013-05-07 23:43:00,55.0,-99.9,29.99,ESE,106,4.0,6.0,-999,-99.99,,,-99.99,,2013-05-08 03:43:00,
2013-05-07 23:53:00,55.0,-99.9,29.99,East,90,4.0,5.0,-999,-99.99,,,-99.99,,2013-05-08 03:53:00,